Time;durP1;ratioP1;P1;durP2;ratioP2;P2;SDS_P1;SDS_P2;PMS_P1;PMS_P2;Temp;Humidity;BMP_temperature;BMP_pressure;BME280_temperature;BME280_humidity;BME280_pressure;Samples;Min_cycle;Max_cycle;Signal;HPM_P1;HPM_P2
2023/06/27 00:00:13;;;;;;;5.60;4.30;;;;;;;17.17;74.02;94722.50;5069127;28;20043;-74
2023/06/27 00:02:39;;;;;;;6.28;4.70;;;;;;;17.16;74.32;94726.94;5070622;28;20470;-75
2023/06/27 00:05:05;;;;;;;5.68;4.78;;;;;;;17.00;74.99;94720.94;5052624;28;20169;-75
2023/06/27 00:07:31;;;;;;;6.88;4.93;;;;;;;16.97;74.38;94711.59;5068369;28;20122;-74
2023/06/27 00:09:56;;;;;;;6.80;4.57;;;;;;;16.73;75.19;94710.63;5068924;28;20086;-74
2023/06/27 00:12:22;;;;;;;5.38;4.07;;;;;;;16.50;75.38;94697.38;5052622;28;20028;-74
2023/06/27 00:14:48;;;;;;;6.47;4.60;;;;;;;16.59;75.66;94710.50;5068739;28;20111;-74
2023/06/27 00:17:14;;;;;;;5.88;4.65;;;;;;;16.64;75.55;94716.88;5051897;28;20024;-74
2023/06/27 00:19:40;;;;;;;7.70;4.50;;;;;;;16.72;75.36;94713.41;5069664;28;20101;-74
2023/06/27 00:22:09;;;;;;;7.38;4.97;;;;;;;16.53;75.90;94714.59;5072781;28;20498;-74
2023/06/27 00:24:35;;;;;;;6.47;4.70;;;;;;;16.37;76.98;94706.75;5072859;28;20036;-75
2023/06/27 00:27:01;;;;;;;6.53;5.18;;;;;;;16.40;76.65;94709.84;5072867;28;20036;-74
2023/06/27 00:29:27;;;;;;;5.90;4.70;;;;;;;16.60;76.48;94712.13;5073938;28;20028;-74
2023/06/27 00:31:52;;;;;;;6.40;4.88;;;;;;;16.54;75.88;94698.69;5073592;28;20051;-74
2023/06/27 00:34:18;;;;;;;6.45;4.32;;;;;;;16.40;76.26;94682.81;5072907;28;20533;-74
2023/06/27 00:36:43;;;;;;;6.07;4.55;;;;;;;16.54;76.00;94706.53;5055861;28;20028;-74
2023/06/27 00:39:08;;;;;;;5.03;4.10;;;;;;;16.67;75.81;94715.72;5073905;28;20056;-74
2023/06/27 00:41:34;;;;;;;6.38;3.90;;;;;;;16.70;75.16;94712.75;5073154;28;20040;-75
2023/06/27 00:43:59;;;;;;;6.40;4.50;;;;;;;16.65;75.37;94708.00;5056197;28;20035;-74
2023/06/27 00:46:32;;;;;;;4.85;4.10;;;;;;;16.69;75.11;94704.09;5039097;28;20017;-75
2023/06/27 00:48:58;;;;;;;6.35;4.80;;;;;;;16.64;74.71;94700.31;5053135;28;20123;-74
2023/06/27 00:51:23;;;;;;;6.15;4.43;;;;;;;16.66;74.55;94686.06;5055518;28;20544;-74
2023/06/27 00:53:48;;;;;;;6.60;4.30;;;;;;;16.68;74.78;94704.22;5055449;28;20024;-74
2023/06/27 00:56:14;;;;;;;6.22;4.30;;;;;;;16.61;74.45;94690.97;5070462;28;20031;-74
2023/06/27 00:58:39;;;;;;;6.47;4.32;;;;;;;16.52;74.70;94674.44;5037212;28;20035;-74
2023/06/27 01:01:05;;;;;;;7.28;4.35;;;;;;;16.58;74.01;94678.22;5070097;28;20040;-74
2023/06/27 01:03:32;;;;;;;6.78;4.28;;;;;;;16.60;74.41;94684.06;5037117;28;20418;-74
2023/06/27 01:05:58;;;;;;;6.65;4.10;;;;;;;16.65;74.04;94684.41;5061925;28;20042;-74
2023/06/27 01:08:29;;;;;;;5.80;4.13;;;;;;;16.71;73.66;94696.03;5054575;28;20040;-74
2023/06/27 01:11:08;;;;;;;5.53;4.47;;;;;;;16.45;75.37;94702.31;5054134;28;20036;-74
2023/06/27 01:13:42;;;;;;;5.78;4.80;;;;;;;15.58;78.37;94694.03;5039152;28;20028;-74
2023/06/27 01:16:07;;;;;;;7.28;5.30;;;;;;;15.70;78.58;94704.25;5055533;28;20039;-74
2023/06/27 01:18:32;;;;;;;5.85;4.88;;;;;;;15.83;77.73;94702.78;5054856;28;20051;-74
2023/06/27 01:20:59;;;;;;;7.47;4.65;;;;;;;16.04;77.67;94710.16;5055169;28;20510;-74
2023/06/27 01:23:44;;;;;;;5.03;4.40;;;;;;;16.24;76.59;94700.19;5054916;28;20024;-74
2023/06/27 01:26:10;;;;;;;5.22;4.22;;;;;;;16.28;75.92;94698.88;5071878;28;20032;-74
2023/06/27 01:28:38;;;;;;;7.32;5.55;;;;;;;15.78;77.19;94699.03;5071771;28;20055;-74
2023/06/27 01:31:03;;;;;;;5.20;4.20;;;;;;;16.05;76.23;94698.72;5071775;28;20035;-74
2023/06/27 01:33:30;;;;;;;5.75;4.68;;;;;;;16.13;76.17;94705.78;5072795;28;20043;-74
2023/06/27 01:36:04;;;;;;;5.65;4.55;;;;;;;16.11;76.17;94706.91;5072885;28;20289;-74
2023/06/27 01:38:37;;;;;;;8.55;4.47;;;;;;;16.13;75.43;94684.81;5071798;28;20151;-74
2023/06/27 01:41:02;;;;;;;5.72;4.40;;;;;;;16.14;75.97;94706.59;5038614;28;20035;-74
2023/06/27 01:43:27;;;;;;;6.35;4.75;;;;;;;15.99;76.30;94699.38;5071822;28;20040;-74
2023/06/27 01:45:53;;;;;;;6.47;4.32;;;;;;;16.00;76.24;94687.91;5054682;28;20489;-74
2023/06/27 01:48:18;;;;;;;8.45;4.70;;;;;;;16.16;74.79;94689.72;5054581;28;20032;-74
2023/06/27 01:50:44;;;;;;;5.57;4.72;;;;;;;16.15;74.76;94689.88;5054947;28;20040;-74
2023/06/27 01:53:09;;;;;;;6.35;4.40;;;;;;;16.34;74.02;94694.78;5070692;28;20029;-74
2023/06/27 01:55:34;;;;;;;6.10;4.25;;;;;;;16.35;73.70;94696.41;5070860;28;20514;-74
2023/06/27 01:58:00;;;;;;;6.57;4.15;;;;;;;16.40;73.65;94699.34;5070676;28;20036;-74
2023/06/27 02:00:26;;;;;;;6.78;4.32;;;;;;;16.35;73.46;94693.78;5054471;28;20028;-74
2023/06/27 02:02:52;;;;;;;6.00;4.75;;;;;;;16.34;74.21;94692.16;5054439;28;20044;-74
2023/06/27 02:05:17;;;;;;;6.22;4.53;;;;;;;16.25;74.39;94693.16;5070116;28;20480;-74
2023/06/27 02:07:43;;;;;;;6.13;4.30;;;;;;;16.09;74.83;94697.41;5070724;28;20082;-74
2023/06/27 02:10:09;;;;;;;6.50;4.90;;;;;;;15.95;75.44;94698.06;5053638;28;20157;-74
2023/06/27 02:12:34;;;;;;;6.82;4.70;;;;;;;16.16;75.16;94705.44;5070682;28;20032;-74
2023/06/27 02:15:00;;;;;;;5.90;4.55;;;;;;;16.33;74.04;94700.19;5068942;28;20082;-74
2023/06/27 02:17:25;;;;;;;6.05;4.97;;;;;;;16.23;74.04;94698.53;5034585;28;20020;-74
2023/06/27 02:19:50;;;;;;;6.50;4.60;;;;;;;16.03;74.80;94702.47;5054117;28;20060;-74
2023/06/27 02:22:16;;;;;;;6.15;4.90;;;;;;;16.06;74.59;94712.63;5070694;28;20031;-74
2023/06/27 02:24:41;;;;;;;5.20;4.18;;;;;;;16.07;74.67;94715.09;5070629;28;20036;-74
2023/06/27 02:27:06;;;;;;;6.07;4.57;;;;;;;15.89;75.10;94706.56;5070204;28;20024;-75
2023/06/27 02:29:32;;;;;;;9.15;4.55;;;;;;;15.97;74.87;94709.19;5070641;28;20456;-74
2023/06/27 02:31:57;;;;;;;8.38;4.82;;;;;;;15.89;75.11;94701.31;5050488;28;20037;-74
2023/06/27 02:34:23;;;;;;;7.50;5.10;;;;;;;15.91;75.37;94688.91;5036130;28;20082;-74
2023/06/27 02:36:48;;;;;;;6.43;4.30;;;;;;;15.94;74.84;94704.28;5069807;28;20082;-74
2023/06/27 02:39:14;;;;;;;7.53;4.72;;;;;;;16.03;74.34;94707.72;5071104;28;20020;-74
2023/06/27 02:41:39;;;;;;;5.95;4.45;;;;;;;15.92;74.43;94695.75;5069963;28;20478;-74
2023/06/27 02:44:05;;;;;;;5.65;4.55;;;;;;;16.01;73.85;94692.16;5052548;28;20028;-74
2023/06/27 02:46:30;;;;;;;6.30;4.63;;;;;;;16.03;73.97;94698.06;5069958;28;20037;-74
2023/06/27 02:48:55;;;;;;;4.78;4.25;;;;;;;15.95;73.92;94692.81;5069840;28;20031;-74
2023/06/27 02:51:21;;;;;;;5.32;4.25;;;;;;;15.93;74.00;94700.00;5069488;28;20052;-74
2023/06/27 02:53:47;;;;;;;5.85;4.45;;;;;;;16.09;73.59;94699.22;5070011;28;20029;-74
2023/06/27 02:56:12;;;;;;;5.70;4.22;;;;;;;15.96;73.90;94685.75;5053374;28;20090;-74
2023/06/27 02:58:39;;;;;;;5.97;4.50;;;;;;;15.87;73.89;94687.56;5036973;28;20040;-74
2023/06/27 03:01:06;;;;;;;7.07;4.32;;;;;;;15.85;74.09;94692.97;5053126;28;20117;-74
2023/06/27 03:03:32;;;;;;;7.35;4.20;;;;;;;15.86;74.21;94707.72;5069529;28;20106;-74
2023/06/27 03:05:58;;;;;;;6.25;4.53;;;;;;;15.73;74.79;94691.63;5069790;28;20494;-75
2023/06/27 03:08:24;;;;;;;7.28;4.28;;;;;;;15.86;74.56;94709.50;5053018;28;20032;-74
2023/06/27 03:10:49;;;;;;;5.97;4.30;;;;;;;15.84;74.15;94699.19;5031709;28;20029;-74
2023/06/27 03:13:14;;;;;;;5.75;4.20;;;;;;;15.78;73.78;94694.59;5033271;28;20041;-74
2023/06/27 03:15:40;;;;;;;5.50;4.05;;;;;;;15.85;73.77;94706.06;5065855;28;20044;-74
2023/06/27 03:18:05;;;;;;;4.85;3.72;;;;;;;15.88;73.58;94699.69;5052889;28;20028;-74
2023/06/27 03:20:30;;;;;;;4.75;4.05;;;;;;;15.91;72.91;94701.16;5070907;28;20090;-74
2023/06/27 03:22:56;;;;;;;4.93;3.90;;;;;;;15.84;73.32;94698.38;5053289;28;20028;-74
2023/06/27 03:25:21;;;;;;;7.00;4.72;;;;;;;15.89;73.25;94705.75;5070547;28;20189;-74
2023/06/27 03:27:47;;;;;;;5.32;4.22;;;;;;;15.88;73.37;94704.94;5069053;28;20025;-74
2023/06/27 03:30:12;;;;;;;7.18;4.30;;;;;;;15.89;73.43;94709.19;5052710;28;20043;-74
2023/06/27 03:32:38;;;;;;;6.03;4.63;;;;;;;15.94;73.59;94714.75;5032724;28;20033;-74
2023/06/27 03:35:03;;;;;;;6.38;4.40;;;;;;;15.80;73.91;94702.31;5057466;28;20450;-74
2023/06/27 03:37:29;;;;;;;5.70;4.32;;;;;;;16.04;72.94;94704.09;5049443;28;20502;-74
2023/06/27 03:39:56;;;;;;;6.03;4.72;;;;;;;15.57;76.32;94710.75;5049545;28;20422;-74
2023/06/27 03:42:21;;;;;;;6.63;5.05;;;;;;;16.01;75.04;94726.22;5035794;28;20044;-74
2023/06/27 03:44:46;;;;;;;6.78;5.10;;;;;;;16.13;75.47;94723.28;5069524;28;20028;-74
2023/06/27 03:47:12;;;;;;;7.28;5.80;;;;;;;15.95;75.95;94724.25;5069519;28;20702;-74
2023/06/27 03:49:37;;;;;;;6.43;5.40;;;;;;;16.28;75.44;94729.50;5068820;28;20032;-79
2023/06/27 03:52:03;;;;;;;7.63;4.95;;;;;;;16.16;75.58;94722.94;5049550;28;20029;-73
2023/06/27 03:54:28;;;;;;;9.95;7.18;;;;;;;16.02;75.96;94732.28;5068926;28;20494;-73
2023/06/27 03:56:54;;;;;;;10.43;6.55;;;;;;;16.04;75.98;94725.06;5073266;28;20032;-74
2023/06/27 03:59:19;;;;;;;7.80;6.15;;;;;;;16.04;76.28;94719.81;5056889;28;20032;-74
2023/06/27 04:01:45;;;;;;;9.07;5.93;;;;;;;16.26;75.88;94719.19;5073068;28;20032;-74
2023/06/27 04:04:10;;;;;;;7.65;6.68;;;;;;;16.17;76.36;94728.03;5072920;28;20032;-74
2023/06/27 04:06:36;;;;;;;8.80;5.80;;;;;;;16.15;76.41;94718.69;5056287;28;20033;-74
2023/06/27 04:09:02;;;;;;;9.95;5.85;;;;;;;16.31;76.16;94722.13;5039940;28;20102;-74
2023/06/27 04:11:28;;;;;;;8.75;5.95;;;;;;;16.59;75.67;94728.84;5056611;28;20047;-73
2023/06/27 04:13:56;;;;;;;9.65;6.45;;;;;;;16.54;75.68;94731.94;5070918;28;20478;-74
2023/06/27 04:16:22;;;;;;;10.15;6.88;;;;;;;16.54;75.95;94724.09;5028935;28;20047;-74
2023/06/27 04:18:47;;;;;;;9.25;6.88;;;;;;;16.69;76.03;94734.75;5067310;28;20032;-72
2023/06/27 04:21:13;;;;;;;11.23;7.82;;;;;;;16.70;76.14;94739.81;5050150;28;20040;-74
2023/06/27 04:23:38;;;;;;;8.15;6.63;;;;;;;16.62;76.05;94720.63;5066737;28;20032;-75
2023/06/27 04:26:04;;;;;;;10.27;7.07;;;;;;;16.69;76.12;94737.38;5062937;28;20040;-75
2023/06/27 04:28:36;;;;;;;9.30;7.20;;;;;;;16.78;75.92;94733.75;5063300;28;20402;-75
2023/06/27 04:31:01;;;;;;;8.90;6.93;;;;;;;17.31;74.17;94744.59;5049314;28;20033;-74
2023/06/27 04:33:27;;;;;;;11.48;6.78;;;;;;;17.09;74.61;94748.78;5063858;28;20486;-74
2023/06/27 04:36:03;;;;;;;8.38;6.60;;;;;;;17.37;73.62;94738.66;5070004;28;20431;-74
2023/06/27 04:38:37;;;;;;;10.00;6.72;;;;;;;17.16;74.36;94737.44;5050847;28;20102;-75
2023/06/27 04:41:03;;;;;;;13.05;6.68;;;;;;;17.52;73.34;94742.19;5052245;28;20037;-75
2023/06/27 04:43:28;;;;;;;7.03;6.32;;;;;;;17.67;72.24;94723.94;5053360;28;20579;-75
2023/06/27 04:45:54;;;;;;;10.98;7.20;;;;;;;17.53;73.13;94749.09;5063700;28;20037;-75
2023/06/27 04:48:19;;;;;;;7.90;7.00;;;;;;;17.57;73.21;94750.38;5035505;28;20486;-75
2023/06/27 04:50:44;;;;;;;8.80;7.32;;;;;;;17.89;71.77;94737.31;5054511;28;20033;-75
2023/06/27 04:53:10;;;;;;;9.65;7.93;;;;;;;17.83;72.95;94746.69;5062057;28;20016;-75
2023/06/27 04:55:35;;;;;;;14.05;8.25;;;;;;;17.79;72.86;94733.06;5049372;28;20427;-75
2023/06/27 04:58:01;;;;;;;12.68;9.52;;;;;;;17.75;73.37;94747.53;5052474;28;20036;-75
2023/06/27 05:00:27;;;;;;;14.95;8.55;;;;;;;17.80;73.31;94744.38;5054797;28;20025;-75
2023/06/27 05:02:52;;;;;;;12.43;7.65;;;;;;;18.16;71.42;94728.88;5054919;28;20033;-75
2023/06/27 05:05:17;;;;;;;12.13;8.13;;;;;;;18.11;71.99;94744.38;5054312;28;20037;-75
2023/06/27 05:07:43;;;;;;;8.77;7.80;;;;;;;18.35;71.40;94753.06;5047929;28;20554;-75
2023/06/27 05:10:08;;;;;;;11.40;7.30;;;;;;;18.47;71.25;94741.13;5052973;28;20033;-75
2023/06/27 05:12:34;;;;;;;13.85;8.05;;;;;;;18.36;72.02;94746.81;5056705;28;20048;-75
2023/06/27 05:14:59;;;;;;;14.18;8.52;;;;;;;18.20;72.92;94738.06;5062666;28;20032;-75
2023/06/27 05:17:25;;;;;;;10.38;8.63;;;;;;;18.38;72.55;94750.09;5068726;28;20032;-75
2023/06/27 05:19:50;;;;;;;14.88;9.05;;;;;;;18.60;72.34;94751.88;5070746;28;20033;-75
2023/06/27 05:22:16;;;;;;;14.45;9.48;;;;;;;18.31;72.56;94740.28;5036046;28;20040;-75
2023/06/27 05:24:41;;;;;;;11.70;9.02;;;;;;;18.31;73.17;94750.81;5071392;28;20029;-75
2023/06/27 05:27:07;;;;;;;13.48;9.00;;;;;;;18.31;73.11;94750.81;5071657;28;20058;-75
2023/06/27 05:29:32;;;;;;;12.35;9.38;;;;;;;18.40;73.45;94756.00;5060106;28;20043;-75
2023/06/27 05:31:58;;;;;;;12.23;9.15;;;;;;;18.44;73.41;94762.53;5053150;28;20029;-75
2023/06/27 05:34:25;;;;;;;12.18;8.93;;;;;;;18.54;72.87;94742.88;5072322;28;20037;-75
2023/06/27 05:36:50;;;;;;;11.73;8.40;;;;;;;18.69;72.87;94742.09;5070795;28;20114;-75
2023/06/27 05:39:16;;;;;;;11.43;8.68;;;;;;;18.76;72.94;94740.44;5070274;28;20033;-75
2023/06/27 05:41:41;;;;;;;9.70;8.45;;;;;;;18.73;71.69;94725.78;5046343;28;20055;-75
2023/06/27 05:44:07;;;;;;;11.18;8.00;;;;;;;18.94;71.95;94742.69;5027727;28;20044;-74
2023/06/27 05:46:38;;;;;;;13.52;8.57;;;;;;;19.13;71.06;94747.44;5045704;28;20032;-76
2023/06/27 05:49:04;;;;;;;9.35;7.95;;;;;;;19.13;70.26;94742.19;5045651;28;20124;-75
2023/06/27 05:51:29;;;;;;;8.85;7.72;;;;;;;19.27;69.75;94752.91;5045597;28;20024;-74
2023/06/27 05:53:55;;;;;;;10.55;8.50;;;;;;;19.40;69.71;94748.63;5043552;28;20033;-74
2023/06/27 05:56:20;;;;;;;11.55;7.63;;;;;;;19.82;68.37;94747.13;5039728;28;20025;-75
2023/06/27 05:58:46;;;;;;;11.48;7.40;;;;;;;20.35;66.81;94752.16;5044448;28;20384;-74
2023/06/27 06:01:11;;;;;;;9.68;7.40;;;;;;;20.41;65.80;94750.56;5048373;28;20045;-74
2023/06/27 06:03:36;;;;;;;8.75;6.05;;;;;;;20.68;62.71;94751.66;5047650;28;20032;-75
2023/06/27 06:06:02;;;;;;;9.30;6.38;;;;;;;20.92;61.80;94748.59;5062963;28;20106;-78
2023/06/27 06:08:28;;;;;;;8.68;5.72;;;;;;;21.28;60.91;94755.50;5071247;28;20119;-79
2023/06/27 06:10:53;;;;;;;9.05;6.60;;;;;;;21.42;58.68;94732.66;5073844;28;20036;-78
2023/06/27 06:13:19;;;;;;;6.82;5.13;;;;;;;21.62;59.68;94759.19;5070579;28;20037;-77
2023/06/27 06:15:44;;;;;;;9.85;6.32;;;;;;;21.33;59.69;94755.75;5071123;28;20035;-73
2023/06/27 06:18:10;;;;;;;8.60;5.88;;;;;;;21.25;61.62;94760.38;5070573;28;20410;-78
2023/06/27 06:20:35;;;;;;;8.70;6.03;;;;;;;21.52;59.11;94748.16;5064981;28;20028;-76
2023/06/27 06:23:01;;;;;;;8.88;6.32;;;;;;;21.33;59.01;94750.47;5066403;28;20090;-76
2023/06/27 06:25:27;;;;;;;8.68;6.65;;;;;;;21.04;59.44;94754.16;5062413;28;20487;-76
2023/06/27 06:27:52;;;;;;;8.95;5.97;;;;;;;21.42;58.92;94746.72;5061438;28;20059;-77
2023/06/27 06:30:18;;;;;;;10.63;6.05;;;;;;;21.59;57.13;94743.72;5051879;28;20028;-76
2023/06/27 06:32:43;;;;;;;9.57;6.55;;;;;;;21.66;57.10;94741.94;5051896;28;20029;-76
2023/06/27 06:35:09;;;;;;;7.80;6.20;;;;;;;21.78;56.81;94736.88;5051533;28;20032;-76
2023/06/27 06:37:34;;;;;;;9.32;6.28;;;;;;;21.77;56.52;94738.72;5049078;28;20049;-77
2023/06/27 06:39:59;;;;;;;10.60;6.32;;;;;;;21.82;56.08;94720.44;5050052;28;20040;-76
2023/06/27 06:42:25;;;;;;;7.07;5.95;;;;;;;21.96;56.58;94726.56;5032662;28;20029;-76
2023/06/27 06:44:50;;;;;;;6.93;5.75;;;;;;;22.04;57.26;94730.88;5032886;28;20045;-76
2023/06/27 06:47:16;;;;;;;11.20;5.95;;;;;;;21.99;56.14;94735.94;5032415;28;20029;-77
2023/06/27 06:49:41;;;;;;;9.52;6.35;;;;;;;21.82;57.24;94732.84;5032014;28;20033;-77
2023/06/27 06:52:07;;;;;;;7.65;6.32;;;;;;;22.33;55.72;94729.72;5035674;28;20237;-77
2023/06/27 06:54:32;;;;;;;9.73;6.22;;;;;;;22.05;56.12;94692.81;5050325;28;20547;-77
2023/06/27 06:56:58;;;;;;;9.35;6.22;;;;;;;22.19;55.47;94734.19;5051779;28;20055;-77
2023/06/27 06:59:23;;;;;;;10.38;6.35;;;;;;;22.07;56.73;94719.91;5052057;28;20044;-76
2023/06/27 07:01:49;;;;;;;7.10;5.63;;;;;;;22.51;54.58;94726.47;5051844;28;20467;-76
2023/06/27 07:04:14;;;;;;;7.25;5.97;;;;;;;22.40;54.60;94717.34;5050757;28;20033;-77
2023/06/27 07:06:40;;;;;;;7.03;5.68;;;;;;;22.43;53.69;94732.00;5051946;28;20028;-76
2023/06/27 07:09:05;;;;;;;11.07;5.80;;;;;;;22.29;53.78;94733.81;5033950;28;20040;-77
2023/06/27 07:11:30;;;;;;;8.13;5.53;;;;;;;22.16;54.24;94700.16;5050944;28;20029;-77
2023/06/27 07:13:58;;;;;;;7.97;6.20;;;;;;;22.45;54.04;94727.28;5050668;28;20037;-77
2023/06/27 07:16:23;;;;;;;9.93;6.00;;;;;;;22.74;53.66;94732.19;5034181;28;20033;-77
2023/06/27 07:18:49;;;;;;;6.50;5.72;;;;;;;22.82;52.77;94717.94;5050387;28;20036;-76
2023/06/27 07:21:14;;;;;;;8.20;5.93;;;;;;;23.50;50.50;94709.66;5050449;28;20494;-76
2023/06/27 07:23:40;;;;;;;7.53;6.03;;;;;;;23.34;51.48;94704.81;5050631;28;20025;-77
2023/06/27 07:26:05;;;;;;;6.35;5.45;;;;;;;23.43;50.04;94708.91;5050338;28;20033;-77
2023/06/27 07:28:31;;;;;;;6.35;5.70;;;;;;;23.54;51.01;94713.53;5050064;28;20055;-76
2023/06/27 07:30:56;;;;;;;6.80;5.38;;;;;;;23.77;51.04;94709.59;5049625;28;20060;-77
2023/06/27 07:33:21;;;;;;;9.68;6.20;;;;;;;24.03;50.54;94703.34;5050566;28;20041;-76
2023/06/27 07:35:47;;;;;;;8.50;5.50;;;;;;;24.48;48.22;94695.31;5050183;28;20457;-77
2023/06/27 07:38:16;;;;;;;7.97;5.45;;;;;;;24.02;49.07;94697.22;5033001;28;20080;-77
2023/06/27 07:40:41;;;;;;;8.25;5.97;;;;;;;23.60;49.52;94703.94;5050233;28;20029;-77
2023/06/27 07:43:06;;;;;;;8.55;5.50;;;;;;;23.54;49.91;94695.00;5033754;28;20032;-77
2023/06/27 07:45:32;;;;;;;8.02;5.65;;;;;;;23.68;50.67;94709.00;5050135;28;20036;-77
2023/06/27 07:47:57;;;;;;;6.47;5.00;;;;;;;23.73;48.95;94714.50;5049990;28;20029;-77
2023/06/27 07:50:23;;;;;;;6.95;5.40;;;;;;;23.81;48.70;94716.09;5050000;28;20029;-77
2023/06/27 07:52:48;;;;;;;7.82;5.15;;;;;;;23.97;49.06;94720.13;5050140;28;20086;-77
2023/06/27 07:55:13;;;;;;;9.27;5.95;;;;;;;23.80;48.45;94714.50;5033381;28;20158;-77
2023/06/27 07:57:39;;;;;;;6.55;5.63;;;;;;;23.79;49.26;94688.97;5049607;28;20032;-77
2023/06/27 08:00:08;;;;;;;7.50;6.00;;;;;;;23.92;48.95;94718.09;5050124;28;20063;-77
2023/06/27 08:02:33;;;;;;;7.20;5.63;;;;;;;23.78;50.16;94703.25;5050122;28;20033;-77
2023/06/27 08:04:58;;;;;;;5.60;4.97;;;;;;;24.42;48.52;94709.41;5051001;28;20510;-77
2023/06/27 08:07:24;;;;;;;7.30;5.28;;;;;;;24.61;47.70;94705.03;5049700;28;20044;-77
2023/06/27 08:09:49;;;;;;;8.07;5.10;;;;;;;24.85;47.35;94706.03;5050172;28;20033;-77
2023/06/27 08:12:15;;;;;;;7.20;5.40;;;;;;;24.71;47.76;94715.97;5049754;28;20036;-77
2023/06/27 08:14:41;;;;;;;6.47;5.25;;;;;;;24.52;47.76;94715.91;5032927;28;20090;-77
2023/06/27 08:17:06;;;;;;;7.85;5.10;;;;;;;25.01;46.05;94715.31;5049999;28;20035;-77
2023/06/27 08:19:31;;;;;;;7.47;4.10;;;;;;;24.84;44.84;94710.53;5049944;28;20037;-76
2023/06/27 08:21:57;;;;;;;7.05;5.13;;;;;;;25.24;44.74;94710.22;5033106;28;20040;-76
2023/06/27 08:24:22;;;;;;;7.45;5.07;;;;;;;25.14;45.79;94691.25;5049609;28;20037;-76
2023/06/27 08:26:49;;;;;;;8.07;5.28;;;;;;;24.85;45.28;94690.09;5050902;28;20029;-77
2023/06/27 08:29:16;;;;;;;6.78;5.53;;;;;;;25.11;45.29;94712.97;5049788;28;20091;-77
2023/06/27 08:31:42;;;;;;;6.75;5.28;;;;;;;25.02;45.66;94696.50;5033172;28;20025;-76
2023/06/27 08:34:07;;;;;;;7.57;5.43;;;;;;;25.30;46.71;94696.03;5049319;28;20556;-76
2023/06/27 08:36:33;;;;;;;6.20;5.30;;;;;;;25.59;45.28;94705.09;5049592;28;20104;-76
2023/06/27 08:38:58;;;;;;;8.98;5.85;;;;;;;25.57;45.36;94698.38;5032905;28;20509;-77
2023/06/27 08:41:23;;;;;;;8.73;5.53;;;;;;;25.39;45.33;94696.53;5051049;28;20029;-76
2023/06/27 08:43:49;;;;;;;6.80;5.22;;;;;;;25.46;46.38;94701.78;5020111;28;20033;-76
2023/06/27 08:46:14;;;;;;;6.82;5.00;;;;;;;25.61;45.59;94694.25;5036690;28;20025;-78
2023/06/27 08:48:41;;;;;;;6.68;4.72;;;;;;;25.74;44.77;94693.25;5053002;28;20041;-77
2023/06/27 08:51:07;;;;;;;7.72;5.32;;;;;;;25.41;44.62;94699.81;5036641;28;20124;-77
2023/06/27 08:53:32;;;;;;;6.97;5.00;;;;;;;25.66;44.83;94697.06;5053155;28;20403;-77
2023/06/27 08:56:09;;;;;;;5.93;4.80;;;;;;;25.82;44.56;94691.09;5052482;28;20036;-77
2023/06/27 08:58:41;;;;;;;6.22;5.22;;;;;;;25.81;43.06;94694.81;5035797;28;20044;-75
2023/06/27 09:01:07;;;;;;;6.22;4.32;;;;;;;25.98;42.77;94687.03;5036264;28;20041;-77
2023/06/27 09:03:33;;;;;;;4.80;4.25;;;;;;;25.93;42.11;94672.78;5036358;28;20127;-75
2023/06/27 09:05:59;;;;;;;6.65;4.82;;;;;;;26.25;41.60;94673.38;5035735;28;20037;-75
2023/06/27 09:08:24;;;;;;;5.68;4.75;;;;;;;26.57;42.06;94660.59;5034624;28;20040;-75
2023/06/27 09:10:50;;;;;;;6.43;5.18;;;;;;;26.47;42.66;94686.97;5052206;28;20037;-75
2023/06/27 09:13:16;;;;;;;6.00;4.90;;;;;;;26.68;41.94;94678.44;5035565;28;20021;-75
2023/06/27 09:15:41;;;;;;;6.80;4.78;;;;;;;26.66;39.96;94685.88;5035526;28;20045;-75
2023/06/27 09:18:06;;;;;;;6.20;4.72;;;;;;;26.61;41.55;94677.75;5035585;28;20083;-75
2023/06/27 09:20:32;;;;;;;5.35;4.38;;;;;;;26.94;40.77;94679.03;5052203;28;20098;-75
2023/06/27 09:22:57;;;;;;;5.05;4.38;;;;;;;27.08;41.10;94672.44;5053544;28;20017;-75
2023/06/27 09:25:24;;;;;;;6.90;4.80;;;;;;;27.33;41.48;94680.19;5035260;28;20499;-75
2023/06/27 09:27:49;;;;;;;5.07;4.45;;;;;;;27.32;39.63;94678.56;5053404;28;20025;-75
2023/06/27 09:30:15;;;;;;;12.02;5.75;;;;;;;27.50;39.94;94674.94;5051898;28;20033;-75
2023/06/27 09:32:56;;;;;;;8.32;5.18;;;;;;;27.52;41.67;94678.16;5035241;28;20395;-75
2023/06/27 09:35:23;;;;;;;6.35;4.00;;;;;;;27.28;38.09;94674.75;5052995;28;20483;-75
2023/06/27 09:37:48;;;;;;;6.72;3.97;;;;;;;27.18;38.59;94678.00;5051650;28;20418;-75
2023/06/27 09:40:24;;;;;;;5.07;3.90;;;;;;;27.29;38.54;94683.56;5018536;28;20025;-76
2023/06/27 09:42:50;;;;;;;5.63;3.85;;;;;;;27.20;40.02;94680.44;5035640;28;20427;-75
2023/06/27 09:45:16;;;;;;;5.65;4.18;;;;;;;27.19;37.88;94678.81;5051591;28;20021;-76
2023/06/27 09:47:42;;;;;;;6.05;4.32;;;;;;;27.46;39.36;94686.31;5051598;28;20040;-75
2023/06/27 09:50:07;;;;;;;6.20;4.28;;;;;;;27.47;38.22;94680.75;5034912;28;20041;-75
2023/06/27 09:52:33;;;;;;;8.00;4.07;;;;;;;27.44;37.44;94675.88;5017910;28;20036;-75
2023/06/27 09:54:58;;;;;;;7.65;3.70;;;;;;;27.86;36.78;94681.03;5018224;28;20029;-75
2023/06/27 09:57:25;;;;;;;5.13;4.13;;;;;;;27.57;38.18;94678.28;5052726;28;20475;-75
2023/06/27 09:59:57;;;;;;;5.82;4.20;;;;;;;27.50;38.51;94664.28;5051252;28;20033;-76
2023/06/27 10:02:24;;;;;;;5.85;4.40;;;;;;;27.63;37.75;94676.53;5051480;28;20475;-75
2023/06/27 10:04:50;;;;;;;4.93;4.00;;;;;;;27.50;37.32;94669.63;5018208;28;20083;-76
2023/06/27 10:07:16;;;;;;;5.45;4.18;;;;;;;27.62;37.87;94682.91;5018197;28;20036;-75
2023/06/27 10:09:41;;;;;;;5.03;3.80;;;;;;;26.86;37.54;94674.06;5034419;28;20410;-75
2023/06/27 10:12:07;;;;;;;6.32;4.03;;;;;;;26.86;36.43;94663.41;5017855;28;20041;-75
2023/06/27 10:14:32;;;;;;;5.90;4.30;;;;;;;26.86;37.04;94671.41;5034528;28;20040;-75
2023/06/27 10:17:00;;;;;;;5.15;3.75;;;;;;;27.05;37.50;94672.06;5034301;28;20029;-76
2023/06/27 10:19:25;;;;;;;4.45;3.60;;;;;;;27.08;37.31;94667.09;5050950;28;20029;-75
2023/06/27 10:21:51;;;;;;;5.22;3.58;;;;;;;27.02;36.50;94668.00;5050882;28;20771;-75
2023/06/27 10:24:18;;;;;;;4.13;3.50;;;;;;;26.90;37.61;94664.56;5050975;28;20032;-75
2023/06/27 10:26:53;;;;;;;4.13;3.55;;;;;;;27.11;36.81;94663.16;5034469;28;20475;-75
2023/06/27 10:29:18;;;;;;;6.03;3.60;;;;;;;27.03;37.33;94663.50;5034368;28;20029;-75
2023/06/27 10:31:49;;;;;;;4.68;4.18;;;;;;;27.12;37.11;94654.91;5017542;28;20029;-75
2023/06/27 10:34:22;;;;;;;6.18;3.92;;;;;;;27.18;36.99;94661.19;5034783;28;20101;-75
2023/06/27 10:36:57;;;;;;;6.47;3.60;;;;;;;26.95;37.64;94662.00;5033837;28;20091;-76
2023/06/27 10:39:36;;;;;;;4.68;3.95;;;;;;;27.09;37.10;94660.72;5034320;28;20453;-75
2023/06/27 10:42:05;;;;;;;4.28;3.75;;;;;;;27.10;37.04;94654.34;5050489;28;20549;-76
2023/06/27 10:44:31;;;;;;;4.75;3.70;;;;;;;27.29;35.45;94649.69;5034448;28;20056;-76
2023/06/27 10:47:15;;;;;;;6.10;4.30;;;;;;;27.31;35.48;94652.94;5050292;28;20112;-75
2023/06/27 10:49:41;;;;;;;5.97;3.80;;;;;;;27.66;36.19;94645.91;5051625;28;20024;-75
2023/06/27 10:52:06;;;;;;;4.72;3.90;;;;;;;27.85;36.30;94650.03;5051641;28;20099;-75
2023/06/27 10:54:31;;;;;;;6.75;3.50;;;;;;;27.99;36.60;94635.34;5033639;28;20033;-75
2023/06/27 10:56:58;;;;;;;5.82;3.80;;;;;;;27.71;35.39;94640.66;5033579;28;20033;-75
2023/06/27 10:59:24;;;;;;;9.80;3.75;;;;;;;27.49;36.16;94637.84;5050221;28;20037;-76
2023/06/27 11:01:53;;;;;;;4.75;3.35;;;;;;;27.71;35.65;94648.66;5033471;28;20526;-75
2023/06/27 11:04:41;;;;;;;4.90;3.58;;;;;;;27.83;33.83;94636.09;5049408;28;20033;-76
2023/06/27 11:07:07;;;;;;;5.47;3.75;;;;;;;27.73;34.98;94633.25;5049995;28;20120;-75
2023/06/27 11:09:33;;;;;;;4.82;3.92;;;;;;;27.77;35.05;94642.38;5033566;28;20414;-75
2023/06/27 11:12:14;;;;;;;5.13;4.03;;;;;;;27.54;35.16;94643.28;5033355;28;20032;-75
2023/06/27 11:14:41;;;;;;;5.20;3.58;;;;;;;27.93;35.71;94636.31;5034108;28;20033;-76
2023/06/27 11:17:06;;;;;;;8.50;3.50;;;;;;;27.83;35.50;94630.78;5033274;28;20025;-75
2023/06/27 11:19:33;;;;;;;4.40;3.53;;;;;;;28.06;35.68;94629.88;5016812;28;20425;-75
2023/06/27 11:21:59;;;;;;;4.03;3.60;;;;;;;28.24;34.53;94620.81;5033131;28;20067;-75
2023/06/27 11:24:24;;;;;;;5.50;3.90;;;;;;;28.47;33.60;94619.88;5049889;28;20064;-76
2023/06/27 11:26:50;;;;;;;4.00;3.60;;;;;;;28.77;32.40;94619.53;5016549;28;20407;-75